NBEK1: Neosho R at Burlingame Rd nr Emporia KS

                                SHEF ID:       NBEK1     NEOSHO R AT BURLINGAME RD NR EMP
STATION TYPE:

PRECIP STAGE STAGE(2) RIV-FLOW BAT-LOAD
in ft ft cfs volt
Ccp-Rev Ccp-Rev Ccp-Rev Ccp-Rev Ccp-Rev
(America/Chicago)
04/26 00:00 0.00 4.30 3.93 233 12.44
04/26 01:00 0.00 4.28 3.93 226 12.40
04/26 02:00 0.00 4.26 3.92 220 12.40
04/26 03:00 0.00 4.25 3.91 216 12.37
04/26 04:00 0.00 4.23 3.92 210 12.35
04/26 05:00 0.00 4.22 3.91 207 12.31
04/26 06:00 0.00 4.21 3.90 204 12.27
04/26 07:00 0.00 4.20 3.90 201 12.24
04/26 08:00 0.00 4.18 3.90 195 12.31
04/26 09:00 0.00 4.17 3.89 192 12.36
04/26 10:00 0.00 4.16 3.89 189 12.99
04/26 11:00 0.00 4.16 3.89 189 13.03
04/26 12:00 0.00 ---- 3.88 ---- ----
04/26 13:00 0.00 4.14 3.88 183 12.70
04/26 14:00 0.00 4.12 3.88 177 12.59
04/26 15:00 0.54 4.18 3.90 195 12.53
04/26 16:00 0.00 4.34 3.95 245 12.52
04/26 17:00 0.00 4.50 4.01 296 12.70
04/26 18:00 0.00 4.57 4.03 321 12.74
04/26 19:00 0.00 4.68 4.05 361 12.63
04/26 20:00 0.00 4.97 4.17 479 12.57
04/26 21:00 0.00 5.45 4.33 672 12.46
04/26 22:00 0.00 6.25 4.61 973 12.44
04/26 23:00 0.00 7.49 5.05 1450 12.42
Data processed at Mon 27Apr2026 04:36 GMT

NOTICE: If you are parsing this page

Please convert to using our Data API. Starting early 2026 we will be migrating to: https://water.usace.army.mil with modern pages rendered in JavaScript. When this migration completes you will no longer be able to scrape this page! CWMSDataAPI (CDA)

Timeseries IDs (TSIDs)

TSIDs used from left to right in the data table
EMPO.Precip-Inc.Total.1Hour.1Hour.Ccp-Rev
EMPO.Stage.Inst.1Hour.0.Ccp-Rev
EMPO.Stage-Alt.Inst.1Hour.0.Ccp-Rev
EMPO.Flow.Inst.1Hour.0.Ccp-Rev
EMPO.Volt-Battery Load.Inst.1Hour.0.Ccp-Rev

                            

All information presented herein is the property of the government of the United States of America and may be revised or deleted at any time without prior notice. Dissemination of this information without the expressed written consent of the Public Affairs Office, Tulsa District U.S. Army Corps of Engineers is strictly prohibited. These data are gathered electronically and, as presented, have NOT undergone any form of quality control. These data are NOT guaranteed to be valid or correct.